KB1KVS Weather Reports


time (UTC)temp
F
wind
direction
speed
knots
gust
knots
rain 1hr
in
rain 24hr
in
rain mn
in
humidity
%
barometer
mb
20201126043022 41 135 0.9 1.7 0.00 0.00 0.00 80 1021.8
20201126042037 40 90 0.9 1.7 0.00 0.00 0.00 81 1021.7
20201126041027 40 45 0.9 1.7 0.00 0.00 0.00 80 1021.9
20201126040019 40 0 0.9 1.7 0.00 0.00 0.00 80 1022.2
20201126035028 40 0 0.9 2.6 0.00 0.00 0.00 80 1022.3
20201126034029 40 0.0 1.7 0.00 0.00 0.00 80 1022.1
20201126033021 40 0 0.9 1.7 0.00 0.00 0.00 80 1022.0
20201126032024 40 0 1.7 3.5 0.00 0.00 0.00 79 1022.1
20201126031021 40 0 1.7 3.5 0.00 0.00 0.00 80 1022.1
20201126030018 40 0 1.7 3.5 0.00 0.00 0.00 79 1022.3
20201126025021 41 23 1.7 3.5 0.00 0.00 0.00 79 1022.0
20201126024021 41 45 0.9 1.7 0.00 0.00 0.00 79 1022.1
20201126023019 41 0.0 0.9 0.00 0.00 0.00 79 1022.2
20201126022019 41 23 0.9 2.6 0.00 0.00 0.00 79 1022.1
20201126021022 41 0 2.6 3.5 0.00 0.00 0.00 79 1022.2
20201126020022 41 338 1.7 3.5 0.00 0.00 0.00 78 1022.2
20201126015021 41 338 1.7 3.5 0.00 0.00 0.00 78 1022.2
20201126014018 41 338 1.7 3.5 0.00 0.00 0.00 78 1022.1
20201126013021 41 338 1.7 2.6 0.00 0.00 0.00 77 1022.1
20201126012016 41 23 2.6 5.2 0.00 0.00 0.00 76 1022.1
20201126011023 42 315 1.7 6.1 0.00 0.00 0.00 76 1022.2
20201126010022 42 23 2.6 4.3 0.00 0.00 0.00 76 1022.3
20201126005023 42 338 1.7 3.5 0.00 0.00 0.00 77 1022.3
20201126004020 42 45 1.7 4.3 0.00 0.00 0.00 76 1022.3
20201126003028 42 0 1.7 5.2 0.00 0.00 0.00 76 1022.3
20201126002027 42 338 2.6 6.1 0.00 0.00 0.00 76 1022.3
20201126001030 42 0 3.5 6.1 0.00 0.00 0.00 77 1022.3
20201126000021 43 338 1.7 3.5 0.00 0.00 0.00 77 1022.3
20201125235021 43 0 2.6 5.2 0.00 0.00 0.00 77 1022.4
20201125234023 43 338 2.6 5.2 0.00 0.00 0.00 77 1022.4
20201125233025 43 338 2.6 4.3 0.00 0.00 0.00 77 1022.4
20201125232020 44 0 3.5 4.3 0.00 0.00 0.00 77 1022.5
20201125231026 44 338 3.5 7.0 0.00 0.00 0.00 77 1022.6
20201125230022 45 338 4.3 7.8 0.00 0.00 0.00 77 1022.5
20201125225021 45 0 3.5 6.1 0.00 0.00 0.00 77 1022.6
20201125224023 46 338 2.6 4.3 0.00 0.00 0.00 77 1022.7
20201125223019 46 338 2.6 3.5 0.00 0.00 0.00 76 1022.6
20201125222021 46 338 3.5 5.2 0.00 0.00 0.00 77 1022.8
20201125221029 46 338 4.3 6.1 0.00 0.00 0.00 76 1022.7
20201125220021 47 338 3.5 5.2 0.00 0.00 0.00 76 1022.8
20201125215020 48 338 2.6 4.3 0.00 0.00 0.00 78 1022.7
20201125214031 49 338 2.6 4.3 0.00 0.00 0.00 84 1022.7
20201125213019 50 338 1.7 2.6 0.00 0.00 0.00 85 1022.6
20201125212029 50 225 0.9 1.7 0.00 0.00 0.00 85 1022.6
20201125211028 50 0.0 1.7 0.00 0.00 0.00 85 1022.8
20201125210039 50 225 1.7 2.6 0.00 0.00 0.00 85 1022.7
20201125205026 50 225 4.3 5.2 0.00 0.00 0.00 85 1022.7
20201125204030 50 203 4.3 7.0 0.00 0.00 0.00 85 1022.7
20201125203025 50 225 4.3 7.8 0.00 0.00 0.00 85 1022.7
20201125202020 50 225 5.2 7.8 0.00 0.00 0.00 85 1022.8
20201125201023 50 203 4.3 8.7 0.00 0.00 0.00 84 1022.8
20201125200045 50 225 6.1 7.8 0.00 0.00 0.00 83 1022.8
20201125195018 50 203 5.2 7.8 0.00 0.00 0.00 82 1022.9
20201125194020 50 203 5.2 8.7 0.00 0.00 0.00 82 1023.0
20201125193021 50 203 4.3 7.8 0.00 0.00 0.00 82 1023.2
20201125192018 50 203 4.3 7.8 0.00 0.00 0.00 81 1023.3
20201125191024 50 203 6.1 9.6 0.00 0.00 0.00 81 1023.5
20201125190025 50 225 6.1 9.6 0.00 0.00 0.00 80 1023.6
20201125185025 50 225 7.8 11.3 0.00 0.00 0.00 79 1023.6
20201125184026 49 225 7.0 12.2 0.00 0.00 0.00 78 1023.9
20201125183019 49 225 7.0 13.0 0.00 0.00 0.00 78 1024.0
20201125182025 49 225 7.8 12.2 0.00 0.00 0.00 77 1024.0
20201125181017 48 225 7.0 10.4 0.00 0.00 0.00 76 1024.2
20201125180023 48 225 8.7 13.9 0.00 0.00 0.00 76 1024.5
20201125175023 48 225 10.4 13.9 0.00 0.00 0.00 76 1024.6
20201125174022 48 225 8.7 13.9 0.00 0.00 0.00 76 1025.0
20201125173028 48 225 7.0 10.4 0.00 0.00 0.00 75 1025.3
20201125172023 47 203 6.1 10.4 0.00 0.00 0.00 75 1025.5
20201125171020 47 225 11.3 14.8 0.00 0.00 0.00 74 1025.7
20201125170026 47 225 10.4 16.5 0.00 0.00 0.00 75 1026.0
20201125165024 47 225 10.4 16.5 0.00 0.00 0.00 75 1026.0
20201125164022 47 225 11.3 17.4 0.00 0.00 0.00 75 1026.2
20201125163016 47 225 11.3 17.4 0.00 0.00 0.00 75 1026.4
20201125162021 47 203 10.4 16.5 0.00 0.00 0.00 75 1026.7
20201125161020 46 203 9.6 17.4 0.00 0.00 0.00 75 1027.0
20201125160026 46 203 7.8 13.9 0.00 0.00 0.00 75 1027.2
20201125155028 46 225 8.7 15.6 0.00 0.00 0.00 75 1027.5
20201125154025 45 203 7.0 11.3 0.00 0.00 0.00 74 1027.6
20201125153026 45 203 7.8 13.9 0.00 0.00 0.00 74 1027.7
20201125152024 45 203 7.8 16.5 0.00 0.00 0.00 75 1027.9
20201125151021 44 203 7.0 13.0 0.00 0.00 0.00 77 1028.1
20201125150025 42 203 7.8 14.8 0.00 0.00 0.00 79 1028.2
20201125145026 39 270 1.7 3.5 0.00 0.00 0.00 77 1028.2
20201125144021 37 315 2.6 3.5 0.00 0.00 0.00 75 1028.6
20201125143021 37 23 1.7 3.5 0.00 0.00 0.00 74 1028.8
20201125142019 36 0 2.6 5.2 0.00 0.00 0.00 74 1029.0
20201125141037 36 113 1.7 2.6 0.00 0.00 0.00 74 1029.2
20201125140028 35 0 1.7 3.5 0.00 0.00 0.00 75 1029.2
20201125135022 35 0 1.7 2.6 0.00 0.00 0.00 75 1029.2
20201125134017 34 0 2.6 3.5 0.00 0.00 0.00 75 1029.2
20201125133021 34 0 1.7 2.6 0.00 0.00 0.00 76 1029.2
20201125132019 33 315 0.9 2.6 0.00 0.00 0.00 76 1029.2
20201125131019 33 338 0.9 2.6 0.00 0.00 0.00 76 1029.3
20201125130020 33 315 0.9 1.7 0.00 0.00 0.00 76 1029.4
20201125125029 32 338 0.9 2.6 0.00 0.00 0.00 76 1029.6
20201125124026 32 0 0.9 2.6 0.00 0.00 0.00 76 1029.5
20201125123054 32 0 0.9 1.7 0.00 0.00 0.00 76 1029.6
20201125122030 32 23 0.9 1.7 0.00 0.00 0.00 76 1029.6
20201125121020 31 338 1.7 3.5 0.00 0.00 0.00 76 1029.9
20201125120035 31 0 2.6 4.3 0.00 0.00 0.00 76 1030.1
20201125115019 31 338 2.6 3.5 0.00 0.00 0.00 76 1030.0
20201125114028 31 338 2.6 4.3 0.00 0.00 0.00 76 1030.0
20201125113022 31 0 2.6 4.3 0.00 0.00 0.00 76 1030.0
20201125112019 31 338 3.5 5.2 0.00 0.00 0.00 76 1030.1
20201125111029 31 338 4.3 5.2 0.00 0.00 0.00 76 1030.2
20201125110023 31 338 4.3 6.1 0.00 0.00 0.00 76 1030.1
20201125105020 31 0 3.5 6.1 0.00 0.00 0.00 76 1029.9
20201125104024 31 0 3.5 6.1 0.00 0.00 0.00 76 1029.6
20201125103022 31 23 2.6 4.3 0.00 0.00 0.00 76 1029.6
20201125102022 31 23 3.5 7.0 0.00 0.00 0.00 76 1029.8
20201125101016 31 0 4.3 6.1 0.00 0.00 0.00 76 1029.7
20201125100025 31 338 4.3 6.1 0.00 0.00 0.00 75 1030.1
20201125095020 31 338 4.3 7.0 0.00 0.00 0.00 75 1030.0
20201125094022 31 338 3.5 5.2 0.00 0.00 0.00 75 1030.1
20201125093039 30 23 2.6 4.3 0.00 0.00 0.00 74 1030.1
20201125092020 30 338 2.6 4.3 0.00 0.00 0.00 74 1030.2
20201125091026 30 45 3.5 5.2 0.00 0.00 0.00 74 1030.1
20201125090048 30 0 2.6 4.3 0.00 0.00 0.00 74 1030.3
20201125085021 30 23 2.6 5.2 0.00 0.00 0.00 74 1030.4
20201125084020 30 338 2.6 4.3 0.00 0.00 0.00 74 1030.3
20201125083019 29 0 2.6 4.3 0.00 0.00 0.00 73 1030.2
20201125082019 29 0 0.9 2.6 0.00 0.00 0.00 73 1030.2
20201125081020 29 45 1.7 3.5 0.00 0.00 0.00 73 1029.9
20201125080027 28 23 2.6 5.2 0.00 0.00 0.00 72 1030.1
20201125075018 28 23 3.5 6.1 0.00 0.00 0.00 71 1030.5
20201125074020 28 315 1.7 3.5 0.00 0.00 0.00 71 1030.7
20201125073021 28 0 1.7 3.5 0.00 0.00 0.00 70 1030.4
20201125072019 28 23 2.6 5.2 0.00 0.00 0.00 69 1030.6
20201125071028 28 0 2.6 4.3 0.00 0.00 0.00 69 1030.6
20201125070035 28 338 2.6 5.2 0.00 0.00 0.00 69 1030.6
20201125065022 29 338 0.9 1.7 0.00 0.00 0.00 70 1030.2
20201125064024 29 315 0.9 2.6 0.00 0.00 0.00 69 1030.1
20201125063021 29 23 2.6 6.1 0.00 0.00 0.00 68 1030.1
20201125062018 29 23 2.6 6.1 0.00 0.00 0.00 67 1030.0
20201125061025 29 23 3.5 5.2 0.00 0.00 0.00 66 1030.0
20201125060035 29 23 4.3 6.1 0.00 0.00 0.00 65 1029.8
20201125055021 29 23 4.3 7.8 0.00 0.00 0.00 64 1030.1
20201125054018 29 23 4.3 7.8 0.00 0.00 0.00 64 1030.3
20201125053022 29 23 3.5 6.1 0.00 0.00 0.00 63 1030.4
20201125052021 29 45 3.5 7.0 0.00 0.00 0.00 63 1030.4
20201125051016 29 23 3.5 7.0 0.00 0.00 0.00 63 1030.4
20201125050025 29 23 4.3 6.1 0.00 0.00 0.00 63 1030.4
20201125045022 29 23 2.6 5.2 0.00 0.00 0.00 62 1030.5
20201125044017 30 23 3.5 6.1 0.00 0.00 0.00 62 1030.6